Wetterdaten: Woche 22.02.10 - 28.02.10 (KW8)
Datum Zeit Temp. Innen Temp. Aussen UV X Diff Temp. Feuchte Inne Feuchte Auss Sonnenschein Luftdruck Regen ab 0,1 Wind Sonnenschein Windben
22.02.2010 00:00 11,6 C 2,7 C 0,0 UV-I 0,0 C 49 % 89 % 0 % 992,4 hPa 0,0 l/m 8,0 km/h (2 Bft) 0,00 h 7,0 km/h (2 Bft)
22.02.2010 01:00 11,5 C 2,6 C 0,0 UV-I 0,0 C 49 % 89 % 0 % 992,1 hPa 0,0 l/m 5,8 km/h (2 Bft) 0,00 h 5,3 km/h (1 Bft)
22.02.2010 02:00 11,5 C 2,3 C 0,0 UV-I 0,0 C 49 % 90 % 0 % 991,6 hPa 0,0 l/m 3,0 km/h (1 Bft) 0,00 h 3,8 km/h (1 Bft)
22.02.2010 03:00 11,5 C 2,3 C 0,0 UV-I 0,0 C 50 % 91 % 0 % 991,1 hPa 0,0 l/m 4,0 km/h (1 Bft) 0,00 h 4,7 km/h (1 Bft)
22.02.2010 04:00 11,5 C 2,4 C 0,0 UV-I 0,0 C 50 % 91 % 0 % 990,4 hPa 0,0 l/m 5,6 km/h (1 Bft) 0,00 h 5,8 km/h (2 Bft)
22.02.2010 05:00 11,6 C 2,5 C 0,0 UV-I 0,0 C 50 % 91 % 0 % 990,2 hPa 0,0 l/m 3,0 km/h (1 Bft) 0,00 h 3,7 km/h (1 Bft)
22.02.2010 06:00 11,6 C 2,8 C 0,0 UV-I 0,0 C 50 % 91 % 0 % 989,7 hPa 0,0 l/m 3,1 km/h (1 Bft) 0,00 h 2,7 km/h (1 Bft)
22.02.2010 07:00 11,6 C 2,9 C 0,0 UV-I 0,0 C 50 % 90 % 0 % 989,2 hPa 0,0 l/m 2,9 km/h (1 Bft) 0,00 h 3,3 km/h (1 Bft)
22.02.2010 08:00 11,7 C 3,3 C 0,0 UV-I 0,1 C 50 % 91 % 2 % 989,0 hPa 0,0 l/m 4,2 km/h (1 Bft) 0,00 h 3,8 km/h (1 Bft)
22.02.2010 09:00 11,9 C 4,1 C 0,1 UV-I 0,1 C 51 % 91 % 3 % 988,8 hPa 0,1 l/m 4,5 km/h (1 Bft) 0,00 h 4,3 km/h (1 Bft)
22.02.2010 10:00 12,0 C 4,8 C 0,4 UV-I 0,0 C 52 % 92 % 1 % 987,9 hPa 0,1 l/m 7,6 km/h (2 Bft) 0,00 h 7,1 km/h (2 Bft)
22.02.2010 11:00 12,2 C 5,4 C 1,0 UV-I 0,3 C 52 % 92 % 8 % 987,7 hPa 0,2 l/m 8,7 km/h (2 Bft) 0,00 h 7,3 km/h (2 Bft)
22.02.2010 12:00 12,9 C 7,0 C 2,6 UV-I 1,9 C 52 % 92 % 54 % 986,9 hPa 0,0 l/m 10,1 km/h (2 Bft) 0,23 h 9,2 km/h (2 Bft)
22.02.2010 13:00 13,5 C 9,0 C 1,8 UV-I 1,4 C 52 % 88 % 41 % 986,1 hPa 0,0 l/m 11,8 km/h (2 Bft) 0,00 h 9,6 km/h (2 Bft)
22.02.2010 14:00 14,0 C 10,7 C 1,8 UV-I 1,4 C 51 % 81 % 41 % 985,5 hPa 0,0 l/m 13,3 km/h (3 Bft) 0,00 h 10,8 km/h (2 Bft)
22.02.2010 15:00 14,1 C 11,5 C 0,5 UV-I 0,1 C 51 % 76 % 3 % 984,1 hPa 0,0 l/m 14,4 km/h (3 Bft) 0,00 h 11,3 km/h (2 Bft)
22.02.2010 16:00 14,0 C 11,8 C 0,1 UV-I 0,1 C 52 % 75 % 4 % 983,9 hPa 0,2 l/m 12,7 km/h (3 Bft) 0,00 h 12,6 km/h (3 Bft)
22.02.2010 17:00 13,9 C 10,3 C 0,0 UV-I 0,0 C 54 % 81 % 0 % 984,2 hPa 1,4 l/m 10,6 km/h (2 Bft) 0,00 h 8,7 km/h (2 Bft)
22.02.2010 18:00 13,6 C 9,1 C 0,0 UV-I 0,0 C 57 % 89 % 0 % 983,7 hPa 1,5 l/m 8,8 km/h (2 Bft) 0,00 h 7,4 km/h (2 Bft)
22.02.2010 19:00 13,5 C 8,8 C 0,0 UV-I 0,0 C 59 % 91 % 0 % 983,2 hPa 1,8 l/m 8,1 km/h (2 Bft) 0,00 h 6,4 km/h (2 Bft)
22.02.2010 20:00 13,5 C 9,2 C 0,0 UV-I 0,0 C 60 % 90 % 0 % 983,1 hPa 0,6 l/m 11,2 km/h (2 Bft) 0,00 h 11,8 km/h (2 Bft)
22.02.2010 21:00 13,5 C 9,7 C 0,0 UV-I 0,0 C 61 % 90 % 0 % 983,2 hPa 0,1 l/m 16,6 km/h (3 Bft) 0,00 h 15,5 km/h (3 Bft)
22.02.2010 22:00 13,6 C 10,0 C 0,0 UV-I 0,0 C 61 % 89 % 0 % 983,6 hPa 0,1 l/m 16,7 km/h (3 Bft) 0,00 h 13,6 km/h (3 Bft)
22.02.2010 23:00 13,6 C 10,1 C 0,0 UV-I 0,0 C 61 % 88 % 0 % 984,2 hPa 0,0 l/m 14,1 km/h (3 Bft) 0,00 h 11,2 km/h (2 Bft)
23.02.2010 00:00 13,7 C 10,2 C 0,0 UV-I 0,0 C 61 % 88 % 0 % 984,8 hPa 0,1 l/m 13,8 km/h (3 Bft) 0,00 h 11,7 km/h (2 Bft)
23.02.2010 01:00 13,8 C 10,1 C 0,0 UV-I 0,0 C 61 % 86 % 0 % 985,8 hPa 0,0 l/m 14,0 km/h (3 Bft) 0,00 h 10,7 km/h (2 Bft)
23.02.2010 02:00 13,9 C 9,9 C 0,0 UV-I 0,0 C 60 % 86 % 0 % 986,3 hPa 0,1 l/m 8,0 km/h (2 Bft) 0,00 h 6,6 km/h (2 Bft)
23.02.2010 03:00 13,9 C 9,1 C 0,0 UV-I 0,0 C 60 % 90 % 0 % 987,0 hPa 0,3 l/m 5,6 km/h (1 Bft) 0,00 h 5,6 km/h (1 Bft)
23.02.2010 04:00 13,7 C 7,9 C 0,0 UV-I 0,0 C 61 % 90 % 0 % 987,8 hPa 0,2 l/m 6,1 km/h (2 Bft) 0,00 h 5,3 km/h (1 Bft)
23.02.2010 05:00 13,4 C 5,7 C 0,0 UV-I 0,0 C 59 % 89 % 0 % 988,6 hPa 0,0 l/m 6,0 km/h (2 Bft) 0,00 h 5,0 km/h (1 Bft)
23.02.2010 06:00 13,1 C 4,4 C 0,0 UV-I 0,0 C 57 % 90 % 0 % 989,1 hPa 0,1 l/m 5,7 km/h (1 Bft) 0,00 h 4,9 km/h (1 Bft)
23.02.2010 07:00 12,9 C 3,7 C 0,0 UV-I 0,0 C 56 % 92 % 0 % 989,5 hPa 0,7 l/m 4,8 km/h (1 Bft) 0,00 h 3,6 km/h (1 Bft)
23.02.2010 08:00 12,9 C 3,3 C 0,0 UV-I 0,0 C 57 % 93 % 0 % 990,2 hPa 1,2 l/m 4,1 km/h (1 Bft) 0,00 h 4,0 km/h (1 Bft)
23.02.2010 09:00 13,1 C 3,3 C 0,0 UV-I 0,0 C 57 % 93 % 0 % 990,8 hPa 0,8 l/m 2,2 km/h (1 Bft) 0,00 h 1,6 km/h (1 Bft)
23.02.2010 10:00 13,4 C 3,7 C 0,1 UV-I 0,0 C 56 % 94 % 0 % 991,3 hPa 0,6 l/m 0,5 km/h (0 Bft) 0,00 h 0,9 km/h (0 Bft)
23.02.2010 11:00 13,5 C 4,0 C 0,3 UV-I 0,0 C 56 % 94 % 0 % 991,9 hPa 0,9 l/m 1,7 km/h (1 Bft) 0,00 h 1,9 km/h (1 Bft)
23.02.2010 12:00 13,6 C 4,2 C 0,3 UV-I 0,0 C 55 % 94 % 1 % 992,3 hPa 0,2 l/m 2,1 km/h (1 Bft) 0,00 h 2,0 km/h (1 Bft)
23.02.2010 13:00 13,7 C 4,2 C 0,0 UV-I 0,0 C 55 % 93 % 0 % 992,3 hPa 0,2 l/m 2,4 km/h (1 Bft) 0,00 h 2,4 km/h (1 Bft)
23.02.2010 14:00 13,7 C 4,1 C 0,0 UV-I 0,0 C 54 % 93 % 0 % 992,5 hPa 0,4 l/m 2,5 km/h (1 Bft) 0,00 h 2,4 km/h (1 Bft)
23.02.2010 15:00 13,6 C 4,0 C 0,0 UV-I 0,0 C 54 % 93 % 0 % 992,9 hPa 0,1 l/m 2,9 km/h (1 Bft) 0,00 h 2,9 km/h (1 Bft)
23.02.2010 16:00 13,6 C 3,9 C 0,0 UV-I 0,0 C 54 % 92 % 0 % 992,9 hPa 0,0 l/m 2,0 km/h (1 Bft) 0,00 h 2,3 km/h (1 Bft)
23.02.2010 17:00 13,5 C 3,6 C 0,0 UV-I 0,0 C 53 % 92 % 0 % 993,1 hPa 0,0 l/m 2,0 km/h (1 Bft) 0,00 h 1,7 km/h (1 Bft)
23.02.2010 18:00 13,4 C 3,5 C 0,0 UV-I 0,0 C 53 % 92 % 0 % 993,4 hPa 0,0 l/m 0,6 km/h (0 Bft) 0,00 h 0,8 km/h (0 Bft)
23.02.2010 19:00 13,4 C 3,3 C 0,0 UV-I 0,0 C 53 % 92 % 0 % 993,7 hPa 0,0 l/m 0,9 km/h (0 Bft) 0,00 h 1,5 km/h (1 Bft)
23.02.2010 20:00 13,2 C 3,3 C 0,0 UV-I 0,0 C 52 % 92 % 0 % 993,7 hPa 0,0 l/m 0,3 km/h (0 Bft) 0,00 h 0,2 km/h (0 Bft)
23.02.2010 21:00 12,8 C 3,3 C 0,0 UV-I 0,0 C 53 % 93 % 0 % 993,5 hPa 0,0 l/m 0,0 km/h (0 Bft) 0,00 h 0,1 km/h (0 Bft)
23.02.2010 22:00 12,6 C 3,3 C 0,0 UV-I 0,0 C 53 % 93 % 0 % 993,8 hPa 0,4 l/m 0,0 km/h (0 Bft) 0,00 h 0,0 km/h (0 Bft)
23.02.2010 23:00 12,6 C 3,3 C 0,0 UV-I 0,0 C 54 % 94 % 0 % 994,0 hPa 0,0 l/m 0,0 km/h (0 Bft) 0,00 h 0,1 km/h (0 Bft)
24.02.2010 00:00 12,6 C 3,5 C 0,0 UV-I 0,0 C 54 % 94 % 0 % 994,1 hPa 0,0 l/m 0,0 km/h (0 Bft) 0,00 h 0,0 km/h (0 Bft)
24.02.2010 01:00 12,6 C 3,7 C 0,0 UV-I 0,0 C 55 % 95 % 0 % 994,4 hPa 0,0 l/m 2,3 km/h (1 Bft) 0,00 h 2,2 km/h (1 Bft)
24.02.2010 02:00 12,6 C 4,0 C 0,0 UV-I 0,0 C 55 % 95 % 0 % 994,3 hPa 0,1 l/m 1,6 km/h (1 Bft) 0,00 h 1,4 km/h (1 Bft)
24.02.2010 03:00 12,7 C 4,4 C 0,0 UV-I 0,0 C 56 % 96 % 0 % 994,3 hPa 0,0 l/m 2,8 km/h (1 Bft) 0,00 h 2,4 km/h (1 Bft)
24.02.2010 04:00 12,7 C 4,5 C 0,0 UV-I 0,0 C 57 % 96 % 0 % 994,3 hPa 0,0 l/m 2,1 km/h (1 Bft) 0,00 h 2,3 km/h (1 Bft)
24.02.2010 05:00 12,7 C 4,8 C 0,0 UV-I 0,0 C 57 % 96 % 0 % 994,5 hPa 0,0 l/m 1,8 km/h (1 Bft) 0,00 h 1,4 km/h (1 Bft)
24.02.2010 06:00 12,7 C 4,8 C 0,0 UV-I 0,1 C 58 % 96 % 0 % 994,7 hPa 0,0 l/m 1,5 km/h (1 Bft) 0,00 h 1,3 km/h (1 Bft)
24.02.2010 07:00 12,6 C 4,9 C 0,0 UV-I 0,1 C 58 % 96 % 2 % 994,9 hPa 0,0 l/m 0,0 km/h (0 Bft) 0,07 h 0,2 km/h (0 Bft)
24.02.2010 08:00 12,7 C 6,5 C 0,0 UV-I 0,6 C 60 % 97 % 17 % 995,4 hPa 0,0 l/m 4,7 km/h (1 Bft) 0,00 h 4,5 km/h (1 Bft)
24.02.2010 09:00 13,1 C 8,1 C 0,5 UV-I 3,1 C 60 % 95 % 64 % 996,0 hPa 0,0 l/m 6,5 km/h (2 Bft) 0,50 h 5,6 km/h (1 Bft)
24.02.2010 10:00 13,6 C 9,9 C 1,5 UV-I 5,4 C 59 % 88 % 100 % 996,6 hPa 0,0 l/m 9,9 km/h (2 Bft) 1,00 h 8,5 km/h (2 Bft)
24.02.2010 11:00 14,1 C 11,0 C 2,1 UV-I 2,9 C 58 % 80 % 79 % 997,1 hPa 0,0 l/m 9,3 km/h (2 Bft) 0,53 h 8,0 km/h (2 Bft)
24.02.2010 12:00 14,5 C 11,5 C 2,4 UV-I 1,9 C 57 % 76 % 54 % 997,4 hPa 0,0 l/m 9,6 km/h (2 Bft) 0,00 h 7,7 km/h (2 Bft)
24.02.2010 13:00 15,0 C 12,0 C 2,0 UV-I 1,4 C 55 % 73 % 40 % 997,5 hPa 0,0 l/m 7,8 km/h (2 Bft) 0,00 h 5,9 km/h (2 Bft)
24.02.2010 14:00 15,1 C 12,2 C 1,1 UV-I 0,8 C 54 % 73 % 24 % 997,6 hPa 0,0 l/m 6,7 km/h (2 Bft) 0,00 h 5,7 km/h (1 Bft)
24.02.2010 15:00 15,2 C 12,1 C 0,3 UV-I 0,2 C 54 % 75 % 6 % 997,3 hPa 0,1 l/m 7,2 km/h (2 Bft) 0,00 h 6,6 km/h (2 Bft)
24.02.2010 16:00 15,3 C 11,6 C 0,4 UV-I 1,1 C 56 % 81 % 31 % 996,5 hPa 0,1 l/m 6,1 km/h (2 Bft) 0,27 h 5,7 km/h (1 Bft)
24.02.2010 17:00 15,6 C 11,3 C 0,0 UV-I 0,0 C 54 % 80 % 0 % 996,3 hPa 0,0 l/m 5,8 km/h (2 Bft) 0,00 h 3,6 km/h (1 Bft)
24.02.2010 18:00 15,4 C 10,5 C 0,0 UV-I 0,0 C 55 % 84 % 0 % 996,0 hPa 0,6 l/m 2,5 km/h (1 Bft) 0,00 h 1,7 km/h (1 Bft)
24.02.2010 19:00 15,2 C 9,8 C 0,0 UV-I 0,0 C 56 % 88 % 0 % 996,0 hPa 1,4 l/m 6,5 km/h (2 Bft) 0,00 h 6,5 km/h (2 Bft)
24.02.2010 20:00 15,0 C 9,6 C 0,0 UV-I 0,0 C 57 % 88 % 0 % 996,0 hPa 0,0 l/m 10,5 km/h (2 Bft) 0,00 h 7,8 km/h (2 Bft)
24.02.2010 21:00 14,9 C 8,9 C 0,0 UV-I 0,0 C 57 % 87 % 0 % 995,8 hPa 0,0 l/m 11,2 km/h (2 Bft) 0,00 h 7,8 km/h (2 Bft)
24.02.2010 22:00 14,7 C 8,1 C 0,0 UV-I 0,0 C 57 % 88 % 0 % 995,4 hPa 0,0 l/m 11,2 km/h (2 Bft) 0,00 h 8,2 km/h (2 Bft)
24.02.2010 23:00 14,5 C 8,1 C 0,0 UV-I 0,0 C 57 % 87 % 0 % 995,1 hPa 0,0 l/m 15,2 km/h (3 Bft) 0,00 h 10,6 km/h (2 Bft)
25.02.2010 00:00 14,4 C 8,6 C 0,0 UV-I 0,0 C 57 % 86 % 0 % 994,4 hPa 0,1 l/m 15,7 km/h (3 Bft) 0,00 h 13,7 km/h (3 Bft)
25.02.2010 01:00 14,5 C 8,9 C 0,0 UV-I 0,0 C 57 % 85 % 0 % 993,8 hPa 0,1 l/m 18,1 km/h (3 Bft) 0,00 h 14,6 km/h (3 Bft)
25.02.2010 02:00 14,4 C 8,7 C 0,0 UV-I 0,0 C 57 % 87 % 0 % 993,2 hPa 0,1 l/m 17,8 km/h (3 Bft) 0,00 h 17,6 km/h (3 Bft)
25.02.2010 03:00 14,5 C 8,6 C 0,0 UV-I 0,0 C 57 % 87 % 0 % 992,6 hPa 0,2 l/m 16,2 km/h (3 Bft) 0,00 h 12,2 km/h (2 Bft)
25.02.2010 04:00 14,5 C 8,5 C 0,0 UV-I 0,0 C 57 % 87 % 0 % 992,0 hPa 0,1 l/m 15,3 km/h (3 Bft) 0,00 h 12,2 km/h (2 Bft)
25.02.2010 05:00 14,5 C 8,9 C 0,0 UV-I 0,0 C 57 % 86 % 0 % 991,8 hPa 0,1 l/m 13,7 km/h (3 Bft) 0,00 h 9,7 km/h (2 Bft)
25.02.2010 06:00 14,4 C 8,9 C 0,0 UV-I 0,0 C 58 % 89 % 0 % 991,9 hPa 0,7 l/m 10,9 km/h (2 Bft) 0,00 h 9,4 km/h (2 Bft)
25.02.2010 07:00 14,3 C 9,0 C 0,0 UV-I 0,0 C 58 % 87 % 0 % 992,2 hPa 0,0 l/m 13,3 km/h (3 Bft) 0,00 h 11,0 km/h (2 Bft)
25.02.2010 08:00 13,7 C 9,2 C 0,0 UV-I 0,0 C 59 % 86 % 0 % 992,7 hPa 0,0 l/m 12,4 km/h (3 Bft) 0,00 h 11,5 km/h (2 Bft)
25.02.2010 09:00 13,6 C 9,5 C 0,2 UV-I 0,1 C 60 % 85 % 3 % 993,2 hPa 0,0 l/m 12,8 km/h (3 Bft) 0,00 h 11,8 km/h (2 Bft)
25.02.2010 10:00 13,7 C 10,2 C 0,9 UV-I 0,3 C 59 % 80 % 10 % 993,7 hPa 0,0 l/m 14,3 km/h (3 Bft) 0,00 h 10,2 km/h (2 Bft)
25.02.2010 11:00 13,9 C 10,8 C 0,8 UV-I 0,4 C 59 % 78 % 12 % 994,2 hPa 0,0 l/m 13,0 km/h (3 Bft) 0,00 h 9,4 km/h (2 Bft)
25.02.2010 12:00 14,0 C 11,0 C 0,5 UV-I 0,2 C 58 % 77 % 6 % 994,2 hPa 0,0 l/m 11,7 km/h (2 Bft) 0,00 h 10,0 km/h (2 Bft)
25.02.2010 13:00 14,1 C 11,2 C 0,4 UV-I 0,3 C 57 % 73 % 7 % 993,9 hPa 0,0 l/m 12,3 km/h (3 Bft) 0,00 h 9,6 km/h (2 Bft)
25.02.2010 14:00 14,0 C 11,0 C 0,1 UV-I 0,0 C 57 % 74 % 0 % 993,6 hPa 0,0 l/m 11,2 km/h (2 Bft) 0,00 h 8,2 km/h (2 Bft)
25.02.2010 15:00 14,0 C 10,8 C 0,2 UV-I 0,1 C 57 % 75 % 1 % 992,9 hPa 0,0 l/m 7,5 km/h (2 Bft) 0,00 h 7,2 km/h (2 Bft)
25.02.2010 16:00 14,2 C 10,9 C 0,1 UV-I 0,0 C 56 % 74 % 1 % 992,2 hPa 0,0 l/m 8,2 km/h (2 Bft) 0,00 h 6,8 km/h (2 Bft)
25.02.2010 17:00 14,1 C 10,6 C 0,0 UV-I 0,0 C 56 % 75 % 0 % 991,4 hPa 0,0 l/m 8,6 km/h (2 Bft) 0,00 h 6,4 km/h (2 Bft)
25.02.2010 18:00 14,0 C 10,0 C 0,0 UV-I 0,0 C 57 % 79 % 0 % 991,0 hPa 0,5 l/m 5,2 km/h (1 Bft) 0,00 h 5,2 km/h (1 Bft)
25.02.2010 19:00 14,0 C 9,1 C 0,0 UV-I 0,0 C 58 % 85 % 0 % 990,1 hPa 0,6 l/m 5,5 km/h (1 Bft) 0,00 h 5,5 km/h (1 Bft)
25.02.2010 20:00 13,9 C 8,6 C 0,0 UV-I 0,0 C 59 % 88 % 0 % 989,3 hPa 0,1 l/m 6,0 km/h (2 Bft) 0,00 h 5,3 km/h (1 Bft)
25.02.2010 21:00 13,8 C 8,5 C 0,0 UV-I 0,0 C 59 % 90 % 0 % 988,5 hPa 0,0 l/m 10,0 km/h (2 Bft) 0,00 h 9,3 km/h (2 Bft)
25.02.2010 22:00 13,8 C 8,5 C 0,0 UV-I 0,0 C 60 % 90 % 0 % 987,9 hPa 0,0 l/m 11,4 km/h (2 Bft) 0,00 h 9,2 km/h (2 Bft)
25.02.2010 23:00 13,8 C 8,5 C 0,0 UV-I 0,0 C 60 % 90 % 0 % 987,6 hPa 0,1 l/m 9,2 km/h (2 Bft) 0,00 h 9,0 km/h (2 Bft)
26.02.2010 00:00 13,8 C 8,2 C 0,0 UV-I 0,0 C 60 % 91 % 0 % 987,0 hPa 0,1 l/m 3,3 km/h (1 Bft) 0,00 h 4,2 km/h (1 Bft)
26.02.2010 01:00 13,8 C 8,1 C 0,0 UV-I 0,0 C 60 % 92 % 0 % 986,6 hPa 0,0 l/m 9,3 km/h (2 Bft) 0,00 h 8,4 km/h (2 Bft)
26.02.2010 02:00 13,8 C 8,2 C 0,0 UV-I 0,0 C 61 % 92 % 0 % 986,0 hPa 0,0 l/m 8,7 km/h (2 Bft) 0,00 h 7,5 km/h (2 Bft)
26.02.2010 03:00 13,8 C 8,3 C 0,0 UV-I 0,0 C 61 % 92 % 0 % 985,3 hPa 0,0 l/m 8,8 km/h (2 Bft) 0,00 h 6,9 km/h (2 Bft)
26.02.2010 04:00 13,8 C 8,4 C 0,0 UV-I 0,0 C 61 % 92 % 0 % 984,8 hPa 0,0 l/m 5,6 km/h (1 Bft) 0,00 h 5,7 km/h (1 Bft)
26.02.2010 05:00 13,8 C 8,9 C 0,0 UV-I 0,3 C 61 % 91 % 0 % 984,6 hPa 0,0 l/m 9,8 km/h (2 Bft) 0,00 h 7,8 km/h (2 Bft)
26.02.2010 06:00 13,9 C 9,3 C 0,0 UV-I 0,3 C 60 % 87 % 0 % 984,6 hPa 0,0 l/m 6,8 km/h (2 Bft) 0,00 h 5,2 km/h (1 Bft)
26.02.2010 07:00 13,9 C 9,4 C 0,0 UV-I 0,1 C 60 % 86 % 1 % 984,7 hPa 0,0 l/m 8,3 km/h (2 Bft) 0,00 h 6,7 km/h (2 Bft)
26.02.2010 08:00 14,0 C 9,7 C 0,0 UV-I 0,1 C 60 % 84 % 2 % 984,8 hPa 0,0 l/m 13,1 km/h (3 Bft) 0,00 h 11,1 km/h (2 Bft)
26.02.2010 09:00 14,0 C 10,2 C 0,6 UV-I 0,2 C 60 % 81 % 5 % 985,0 hPa 0,0 l/m 14,9 km/h (3 Bft) 0,00 h 12,8 km/h (3 Bft)
26.02.2010 10:00 14,2 C 10,8 C 0,6 UV-I 0,4 C 59 % 77 % 10 % 985,1 hPa 0,0 l/m 13,3 km/h (3 Bft) 0,00 h 11,9 km/h (2 Bft)
26.02.2010 11:00 14,3 C 11,5 C 1,9 UV-I 1,0 C 58 % 74 % 29 % 985,4 hPa 0,0 l/m 13,4 km/h (3 Bft) 0,00 h 13,0 km/h (3 Bft)
26.02.2010 12:00 14,4 C 11,3 C 1,0 UV-I 0,2 C 57 % 77 % 7 % 986,0 hPa 0,7 l/m 13,1 km/h (3 Bft) 0,00 h 9,3 km/h (2 Bft)
26.02.2010 13:00 14,2 C 9,3 C 0,4 UV-I 0,0 C 59 % 86 % 0 % 986,9 hPa 1,8 l/m 10,4 km/h (2 Bft) 0,00 h 8,6 km/h (2 Bft)
26.02.2010 14:00 13,9 C 8,3 C 0,2 UV-I 0,0 C 60 % 89 % 0 % 988,2 hPa 0,8 l/m 12,4 km/h (3 Bft) 0,00 h 12,3 km/h (3 Bft)
26.02.2010 15:00 13,6 C 7,7 C 0,7 UV-I 0,0 C 60 % 88 % 0 % 990,2 hPa 0,6 l/m 14,9 km/h (3 Bft) 0,00 h 12,0 km/h (2 Bft)
26.02.2010 16:00 13,5 C 7,3 C 0,2 UV-I 0,0 C 60 % 85 % 0 % 991,4 hPa 0,2 l/m 14,6 km/h (3 Bft) 0,00 h 12,1 km/h (2 Bft)
26.02.2010 17:00 13,2 C 7,6 C 0,0 UV-I 0,0 C 57 % 76 % 0 % 992,3 hPa 0,0 l/m 15,1 km/h (3 Bft) 0,00 h 13,0 km/h (3 Bft)
26.02.2010 18:00 12,9 C 7,2 C 0,0 UV-I 0,0 C 55 % 75 % 0 % 993,6 hPa 0,1 l/m 17,1 km/h (3 Bft) 0,00 h 13,8 km/h (3 Bft)
26.02.2010 19:00 13,2 C 6,6 C 0,0 UV-I 0,0 C 53 % 77 % 0 % 995,2 hPa 0,2 l/m 13,4 km/h (3 Bft) 0,00 h 11,5 km/h (2 Bft)
26.02.2010 20:00 13,2 C 5,6 C 0,0 UV-I 0,0 C 54 % 84 % 0 % 996,1 hPa 0,9 l/m 10,9 km/h (2 Bft) 0,00 h 8,6 km/h (2 Bft)
26.02.2010 21:00 13,2 C 5,8 C 0,0 UV-I 0,0 C 54 % 82 % 0 % 996,7 hPa 1,2 l/m 13,3 km/h (3 Bft) 0,00 h 12,1 km/h (2 Bft)
26.02.2010 22:00 13,0 C 6,3 C 0,0 UV-I 0,0 C 51 % 76 % 0 % 997,7 hPa 0,0 l/m 16,4 km/h (3 Bft) 0,00 h 12,9 km/h (3 Bft)
26.02.2010 23:00 12,9 C 6,0 C 0,0 UV-I 0,0 C 51 % 76 % 0 % 998,6 hPa 0,0 l/m 15,4 km/h (3 Bft) 0,00 h 12,8 km/h (3 Bft)
27.02.2010 00:00 12,8 C 5,8 C 0,0 UV-I 0,0 C 50 % 76 % 0 % 999,2 hPa 0,0 l/m 13,9 km/h (3 Bft) 0,00 h 11,6 km/h (2 Bft)
27.02.2010 01:00 12,8 C 5,7 C 0,0 UV-I 0,0 C 50 % 78 % 0 % 999,6 hPa 0,0 l/m 14,1 km/h (3 Bft) 0,00 h 11,6 km/h (2 Bft)
27.02.2010 02:00 12,8 C 5,6 C 0,0 UV-I 0,0 C 51 % 79 % 0 % 1000,0 hPa 0,0 l/m 13,9 km/h (3 Bft) 0,00 h 13,0 km/h (3 Bft)
27.02.2010 03:00 12,7 C 5,5 C 0,0 UV-I 0,0 C 51 % 79 % 0 % 1000,3 hPa 0,0 l/m 12,2 km/h (3 Bft) 0,00 h 9,9 km/h (2 Bft)
27.02.2010 04:00 12,7 C 5,2 C 0,0 UV-I 0,0 C 51 % 80 % 0 % 1000,2 hPa 0,0 l/m 10,5 km/h (2 Bft) 0,00 h 9,9 km/h (2 Bft)
27.02.2010 05:00 12,7 C 5,0 C 0,0 UV-I 0,0 C 51 % 80 % 0 % 1000,5 hPa 0,0 l/m 7,4 km/h (2 Bft) 0,00 h 6,2 km/h (2 Bft)
27.02.2010 06:00 12,8 C 4,8 C 0,0 UV-I 0,0 C 50 % 80 % 0 % 1000,8 hPa 0,0 l/m 7,2 km/h (2 Bft) 0,00 h 6,6 km/h (2 Bft)
27.02.2010 07:00 12,8 C 4,8 C 0,0 UV-I 0,0 C 51 % 82 % 0 % 1000,5 hPa 0,0 l/m 4,8 km/h (1 Bft) 0,00 h 4,7 km/h (1 Bft)
27.02.2010 08:00 12,9 C 5,3 C 0,0 UV-I 0,1 C 51 % 84 % 4 % 1001,0 hPa 0,0 l/m 5,7 km/h (1 Bft) 0,00 h 5,1 km/h (1 Bft)
27.02.2010 09:00 13,1 C 6,0 C 0,2 UV-I 0,5 C 52 % 85 % 14 % 1000,8 hPa 0,0 l/m 5,7 km/h (1 Bft) 0,00 h 4,9 km/h (1 Bft)
27.02.2010 10:00 13,2 C 6,9 C 0,2 UV-I 0,0 C 53 % 85 % 1 % 1001,0 hPa 0,1 l/m 6,0 km/h (2 Bft) 0,00 h 5,9 km/h (2 Bft)
27.02.2010 11:00 13,2 C 7,8 C 0,8 UV-I 0,0 C 54 % 82 % 1 % 1001,3 hPa 0,0 l/m 12,5 km/h (3 Bft) 0,00 h 10,3 km/h (2 Bft)
27.02.2010 12:00 13,5 C 9,0 C 2,8 UV-I 1,9 C 54 % 77 % 54 % 1001,0 hPa 0,0 l/m 11,1 km/h (2 Bft) 0,10 h 9,1 km/h (2 Bft)
27.02.2010 13:00 14,6 C 10,7 C 3,3 UV-I 2,7 C 52 % 68 % 74 % 1000,9 hPa 0,0 l/m 11,0 km/h (2 Bft) 0,33 h 8,1 km/h (2 Bft)
27.02.2010 14:00 14,8 C 11,2 C 0,9 UV-I 0,5 C 50 % 66 % 13 % 1000,0 hPa 0,0 l/m 7,0 km/h (2 Bft) 0,00 h 6,2 km/h (2 Bft)
27.02.2010 15:00 14,9 C 12,1 C 2,2 UV-I 2,2 C 50 % 66 % 60 % 999,3 hPa 0,0 l/m 8,4 km/h (2 Bft) 0,20 h 7,7 km/h (2 Bft)
27.02.2010 16:00 16,3 C 13,6 C 0,9 UV-I 3,2 C 48 % 62 % 85 % 999,0 hPa 0,1 l/m 4,5 km/h (1 Bft) 0,60 h 4,2 km/h (1 Bft)
27.02.2010 17:00 16,7 C 13,2 C 0,1 UV-I 0,4 C 45 % 57 % 12 % 997,7 hPa 0,0 l/m 5,6 km/h (1 Bft) 0,13 h 5,9 km/h (2 Bft)
27.02.2010 18:00 16,0 C 11,6 C 0,0 UV-I 0,0 C 46 % 61 % 0 % 996,3 hPa 0,0 l/m 12,8 km/h (3 Bft) 0,00 h 9,3 km/h (2 Bft)
27.02.2010 19:00 15,1 C 10,5 C 0,0 UV-I 0,0 C 48 % 64 % 0 % 995,3 hPa 0,0 l/m 8,0 km/h (2 Bft) 0,00 h 5,7 km/h (1 Bft)
27.02.2010 20:00 14,5 C 9,4 C 0,0 UV-I 0,0 C 49 % 67 % 0 % 993,7 hPa 0,0 l/m 1,1 km/h (1 Bft) 0,00 h 1,3 km/h (1 Bft)
27.02.2010 21:00 14,3 C 8,7 C 0,0 UV-I 0,0 C 49 % 68 % 0 % 992,9 hPa 0,0 l/m 0,9 km/h (0 Bft) 0,00 h 1,0 km/h (0 Bft)
27.02.2010 22:00 14,2 C 8,0 C 0,0 UV-I 0,0 C 49 % 70 % 0 % 992,0 hPa 0,0 l/m 0,8 km/h (0 Bft) 0,00 h 0,8 km/h (0 Bft)
27.02.2010 23:00 14,1 C 7,5 C 0,0 UV-I 0,0 C 49 % 73 % 0 % 990,8 hPa 0,0 l/m 0,9 km/h (0 Bft) 0,00 h 1,2 km/h (1 Bft)
28.02.2010 00:00 14,0 C 7,6 C 0,0 UV-I 0,2 C 49 % 72 % 0 % 989,9 hPa 0,0 l/m 3,6 km/h (1 Bft) 0,00 h 3,7 km/h (1 Bft)
28.02.2010 01:00 14,1 C 7,9 C 0,0 UV-I 0,2 C 49 % 71 % 0 % 989,0 hPa 0,0 l/m 3,2 km/h (1 Bft) 0,00 h 3,1 km/h (1 Bft)
28.02.2010 02:00 14,1 C 8,0 C 0,0 UV-I 0,0 C 50 % 75 % 0 % 988,2 hPa 0,0 l/m 10,0 km/h (2 Bft) 0,00 h 9,9 km/h (2 Bft)
28.02.2010 03:00 13,9 C 7,3 C 0,0 UV-I 0,0 C 52 % 83 % 0 % 986,6 hPa 0,1 l/m 6,4 km/h (2 Bft) 0,00 h 6,0 km/h (2 Bft)
28.02.2010 04:00 14,0 C 6,8 C 0,0 UV-I 0,0 C 53 % 85 % 0 % 985,0 hPa 0,0 l/m 8,2 km/h (2 Bft) 0,00 h 8,6 km/h (2 Bft)
28.02.2010 05:00 13,9 C 6,8 C 0,0 UV-I 0,0 C 53 % 86 % 0 % 983,1 hPa 0,0 l/m 9,8 km/h (2 Bft) 0,00 h 9,2 km/h (2 Bft)
28.02.2010 06:00 13,9 C 6,6 C 0,0 UV-I 0,0 C 55 % 89 % 0 % 981,8 hPa 1,2 l/m 9,0 km/h (2 Bft) 0,00 h 7,1 km/h (2 Bft)
28.02.2010 07:00 13,9 C 6,6 C 0,0 UV-I 0,0 C 55 % 92 % 0 % 980,1 hPa 1,0 l/m 8,9 km/h (2 Bft) 0,00 h 7,1 km/h (2 Bft)
28.02.2010 08:00 13,8 C 6,8 C 0,0 UV-I 0,0 C 57 % 93 % 0 % 978,8 hPa 0,9 l/m 10,7 km/h (2 Bft) 0,00 h 10,0 km/h (2 Bft)
28.02.2010 09:00 13,9 C 7,4 C 0,0 UV-I 0,0 C 58 % 94 % 1 % 978,6 hPa 0,0 l/m 10,6 km/h (2 Bft) 0,00 h 8,7 km/h (2 Bft)
28.02.2010 10:00 14,0 C 8,5 C 0,3 UV-I 0,9 C 59 % 94 % 25 % 977,5 hPa 0,0 l/m 7,8 km/h (2 Bft) 0,00 h 6,6 km/h (2 Bft)
28.02.2010 11:00 14,2 C 10,6 C 0,0 UV-I 0,5 C 58 % 82 % 15 % 977,1 hPa 0,0 l/m 16,0 km/h (3 Bft) 0,00 h 17,2 km/h (3 Bft)
28.02.2010 12:00 14,5 C 11,5 C 0,0 UV-I 0,0 C 56 % 71 % 0 % 976,9 hPa 1,1 l/m 20,6 km/h (4 Bft) 0,00 h 19,1 km/h (3 Bft)
28.02.2010 13:00 14,7 C 10,7 C 0,0 UV-I 0,0 C 54 % 70 % 0 % 976,6 hPa 0,6 l/m 22,3 km/h (4 Bft) 0,00 h 20,0 km/h (4 Bft)
28.02.2010 14:00 14,6 C 9,5 C 0,0 UV-I 0,0 C 53 % 73 % 0 % 976,7 hPa 1,1 l/m 27,6 km/h (4 Bft) 0,00 h 25,0 km/h (4 Bft)
28.02.2010 15:00 14,3 C 7,6 C 0,0 UV-I 0,0 C 53 % 79 % 0 % 977,4 hPa 1,1 l/m 30,3 km/h (5 Bft) 0,00 h 28,0 km/h (4 Bft)
28.02.2010 16:00 13,7 C 5,8 C 0,0 UV-I 0,0 C 53 % 85 % 0 % 978,6 hPa 1,8 l/m 36,6 km/h (5 Bft) 0,00 h 33,5 km/h (5 Bft)
28.02.2010 17:00 13,1 C 4,9 C 0,0 UV-I 0,0 C 53 % 88 % 0 % 981,6 hPa 1,2 l/m 36,2 km/h (5 Bft) 0,00 h 29,1 km/h (5 Bft)
28.02.2010 18:00 12,8 C 5,1 C 0,0 UV-I 0,0 C 54 % 89 % 0 % 985,0 hPa 3,5 l/m 30,1 km/h (5 Bft) 0,00 h 25,1 km/h (4 Bft)
28.02.2010 19:00 12,7 C 5,4 C 0,0 UV-I 0,0 C 55 % 90 % 0 % 988,3 hPa 0,0 l/m 23,1 km/h (4 Bft) 0,00 h 19,8 km/h (3 Bft)
28.02.2010 20:00 12,7 C 5,4 C 0,0 UV-I 0,0 C 56 % 89 % 0 % 990,5 hPa 1,7 l/m 23,2 km/h (4 Bft) 0,00 h 21,3 km/h (4 Bft)
28.02.2010 21:00 12,7 C 5,3 C 0,0 UV-I 0,0 C 56 % 89 % 0 % 992,5 hPa 0,5 l/m 19,2 km/h (3 Bft) 0,00 h 15,2 km/h (3 Bft)
28.02.2010 22:00 12,6 C 5,0 C 0,0 UV-I 0,0 C 56 % 90 % 0 % 994,1 hPa 0,0 l/m 16,2 km/h (3 Bft) 0,00 h 13,5 km/h (3 Bft)
28.02.2010 23:00 12,6 C 4,8 C 0,0 UV-I 0,0 C 56 % 91 % 0 % 995,3 hPa 1,1 l/m 16,4 km/h (3 Bft) 0,00 h 14,4 km/h (3 Bft)
Min-Datum _ 22.02.10 22.02.10 22.02.10 22.02.10 27.02.10 27.02.10 22.02.10 28.02.10 - 23.02.10 - 22.02.10
_ Min-Zeit 00:00 02:34 00:00 00:00 17:24 17:16 00:00 13:32 - 10:02 - 01:06
Minimum _ 11,4 C 2,2 C 0,0 UV-I 0,0 C 45 % 55 % 0 % 976,4 hPa - 0,0 km/h (0 Bft) - 0,0 km/h (0 Bft)
Max-Datum _ 27.02.10 27.02.10 27.02.10 24.02.10 22.02.10 24.02.10 22.02.10 27.02.10 28.02.10 28.02.10 22.02.10 28.02.10
_ Max-Zeit 16:46 16:42 13:24 09:56 22:56 08:02 12:20 11:32 18:50 17:02 12:18 16:58
Maximum _ 16,8 C 13,9 C 6,9 UV-I 6,3 C 62 % 97 % 100 % 1001,5 hPa 3,5 l/m 43,0 km/h
W-SW (6 Bft)
0,03 h 86,7 km/h
N-NO (9 Bft)
Durchschnitt _ 13,6 C 7,5 C 0,2 UV-I 0,2 C 55 % 85 % 6 % 991,0 hPa #40,3 l/m 9,5 km/h (2 Bft) #3:58 h 8,2 km/h (2 Bft)
© 2012 W. Hausmann